sensor_id;sensor_type;location;lat;lon;timestamp;P1;durP1;ratioP1;P2;durP2;ratioP2
68744;SDS011;73143;45.456;11.064;2023-10-13T00:02:22;39.60;;;23.20;;
68744;SDS011;73143;45.456;11.064;2023-10-13T00:04:59;40.40;;;22.70;;
68744;SDS011;73143;45.456;11.064;2023-10-13T00:07:40;40.60;;;22.70;;
68744;SDS011;73143;45.456;11.064;2023-10-13T00:10:18;39.00;;;22.90;;
68744;SDS011;73143;45.456;11.064;2023-10-13T00:12:55;40.10;;;23.30;;
68744;SDS011;73143;45.456;11.064;2023-10-13T00:15:46;42.30;;;23.00;;
68744;SDS011;73143;45.456;11.064;2023-10-13T00:18:32;38.50;;;22.70;;
68744;SDS011;73143;45.456;11.064;2023-10-13T00:21:13;42.30;;;22.60;;
68744;SDS011;73143;45.456;11.064;2023-10-13T00:24:04;38.40;;;24.00;;
68744;SDS011;73143;45.456;11.064;2023-10-13T00:26:46;37.10;;;24.30;;
68744;SDS011;73143;45.456;11.064;2023-10-13T00:29:26;44.70;;;25.10;;
68744;SDS011;73143;45.456;11.064;2023-10-13T00:32:09;43.10;;;26.00;;
68744;SDS011;73143;45.456;11.064;2023-10-13T00:34:48;46.10;;;26.00;;
68744;SDS011;73143;45.456;11.064;2023-10-13T00:37:27;47.30;;;26.50;;
68744;SDS011;73143;45.456;11.064;2023-10-13T00:40:14;44.30;;;25.60;;
68744;SDS011;73143;45.456;11.064;2023-10-13T00:43:13;42.60;;;25.80;;
68744;SDS011;73143;45.456;11.064;2023-10-13T00:46:14;41.70;;;25.50;;
68744;SDS011;73143;45.456;11.064;2023-10-13T00:48:52;47.20;;;26.30;;
68744;SDS011;73143;45.456;11.064;2023-10-13T00:51:28;44.90;;;27.40;;
68744;SDS011;73143;45.456;11.064;2023-10-13T00:54:07;43.90;;;26.00;;
68744;SDS011;73143;45.456;11.064;2023-10-13T00:56:45;45.00;;;26.70;;
68744;SDS011;73143;45.456;11.064;2023-10-13T00:59:29;44.70;;;26.40;;
68744;SDS011;73143;45.456;11.064;2023-10-13T01:02:14;45.20;;;27.10;;
68744;SDS011;73143;45.456;11.064;2023-10-13T01:05:04;46.30;;;27.90;;
68744;SDS011;73143;45.456;11.064;2023-10-13T01:07:43;40.20;;;26.00;;
68744;SDS011;73143;45.456;11.064;2023-10-13T01:10:24;43.90;;;26.80;;
68744;SDS011;73143;45.456;11.064;2023-10-13T01:13:04;44.10;;;26.60;;
68744;SDS011;73143;45.456;11.064;2023-10-13T01:15:42;47.60;;;28.00;;
68744;SDS011;73143;45.456;11.064;2023-10-13T01:18:21;46.90;;;27.50;;
68744;SDS011;73143;45.456;11.064;2023-10-13T01:21:00;42.50;;;26.20;;
68744;SDS011;73143;45.456;11.064;2023-10-13T01:23:41;46.80;;;27.70;;
68744;SDS011;73143;45.456;11.064;2023-10-13T01:26:19;45.60;;;28.10;;
68744;SDS011;73143;45.456;11.064;2023-10-13T01:29:01;42.60;;;28.00;;
68744;SDS011;73143;45.456;11.064;2023-10-13T01:31:45;43.30;;;26.00;;
68744;SDS011;73143;45.456;11.064;2023-10-13T01:34:22;41.40;;;25.30;;
68744;SDS011;73143;45.456;11.064;2023-10-13T01:36:59;43.20;;;26.40;;
68744;SDS011;73143;45.456;11.064;2023-10-13T01:39:39;43.10;;;27.20;;
68744;SDS011;73143;45.456;11.064;2023-10-13T01:42:19;45.20;;;25.80;;
68744;SDS011;73143;45.456;11.064;2023-10-13T01:44:57;46.90;;;27.00;;
68744;SDS011;73143;45.456;11.064;2023-10-13T01:47:37;45.10;;;26.60;;
68744;SDS011;73143;45.456;11.064;2023-10-13T01:50:18;46.60;;;26.40;;
68744;SDS011;73143;45.456;11.064;2023-10-13T01:53:00;43.30;;;26.00;;
68744;SDS011;73143;45.456;11.064;2023-10-13T01:55:44;44.80;;;26.90;;
68744;SDS011;73143;45.456;11.064;2023-10-13T01:58:21;46.70;;;27.30;;
68744;SDS011;73143;45.456;11.064;2023-10-13T02:01:01;42.30;;;26.90;;
68744;SDS011;73143;45.456;11.064;2023-10-13T02:03:39;42.40;;;25.00;;
68744;SDS011;73143;45.456;11.064;2023-10-13T02:06:19;39.50;;;25.20;;
68744;SDS011;73143;45.456;11.064;2023-10-13T02:08:56;43.10;;;26.40;;
68744;SDS011;73143;45.456;11.064;2023-10-13T02:11:42;49.60;;;28.30;;
68744;SDS011;73143;45.456;11.064;2023-10-13T02:14:24;44.90;;;27.60;;
68744;SDS011;73143;45.456;11.064;2023-10-13T02:17:04;46.00;;;26.40;;
68744;SDS011;73143;45.456;11.064;2023-10-13T02:19:49;47.40;;;26.70;;
68744;SDS011;73143;45.456;11.064;2023-10-13T02:22:26;42.40;;;25.70;;
68744;SDS011;73143;45.456;11.064;2023-10-13T02:25:04;42.50;;;24.20;;
68744;SDS011;73143;45.456;11.064;2023-10-13T02:27:49;35.80;;;22.80;;
68744;SDS011;73143;45.456;11.064;2023-10-13T02:30:31;39.00;;;23.70;;
68744;SDS011;73143;45.456;11.064;2023-10-13T02:33:10;35.10;;;22.00;;
68744;SDS011;73143;45.456;11.064;2023-10-13T02:35:53;35.50;;;21.60;;
68744;SDS011;73143;45.456;11.064;2023-10-13T02:38:30;36.10;;;22.00;;
68744;SDS011;73143;45.456;11.064;2023-10-13T02:41:21;37.40;;;21.50;;
68744;SDS011;73143;45.456;11.064;2023-10-13T02:43:59;38.00;;;22.00;;
68744;SDS011;73143;45.456;11.064;2023-10-13T02:46:40;36.90;;;22.30;;
68744;SDS011;73143;45.456;11.064;2023-10-13T02:49:22;36.90;;;22.60;;
68744;SDS011;73143;45.456;11.064;2023-10-13T02:52:03;32.70;;;22.30;;
68744;SDS011;73143;45.456;11.064;2023-10-13T02:54:40;37.50;;;22.80;;
68744;SDS011;73143;45.456;11.064;2023-10-13T02:57:18;35.90;;;21.70;;
68744;SDS011;73143;45.456;11.064;2023-10-13T02:59:55;37.90;;;23.00;;
68744;SDS011;73143;45.456;11.064;2023-10-13T03:02:43;37.30;;;21.10;;
68744;SDS011;73143;45.456;11.064;2023-10-13T03:05:32;41.80;;;22.40;;
68744;SDS011;73143;45.456;11.064;2023-10-13T03:08:10;36.80;;;21.20;;
68744;SDS011;73143;45.456;11.064;2023-10-13T03:10:58;36.50;;;21.80;;
68744;SDS011;73143;45.456;11.064;2023-10-13T03:13:38;39.50;;;22.80;;
68744;SDS011;73143;45.456;11.064;2023-10-13T03:16:17;40.60;;;21.60;;
68744;SDS011;73143;45.456;11.064;2023-10-13T03:18:53;40.30;;;22.60;;
68744;SDS011;73143;45.456;11.064;2023-10-13T03:21:31;35.00;;;21.30;;
68744;SDS011;73143;45.456;11.064;2023-10-13T03:24:11;38.30;;;22.30;;
68744;SDS011;73143;45.456;11.064;2023-10-13T03:26:48;39.90;;;23.20;;
68744;SDS011;73143;45.456;11.064;2023-10-13T03:29:24;38.50;;;22.10;;
68744;SDS011;73143;45.456;11.064;2023-10-13T03:32:02;42.60;;;23.10;;
68744;SDS011;73143;45.456;11.064;2023-10-13T03:34:47;43.20;;;23.20;;
68744;SDS011;73143;45.456;11.064;2023-10-13T03:37:38;42.60;;;23.70;;
68744;SDS011;73143;45.456;11.064;2023-10-13T03:40:15;43.60;;;24.90;;
68744;SDS011;73143;45.456;11.064;2023-10-13T03:43:05;45.00;;;24.70;;
68744;SDS011;73143;45.456;11.064;2023-10-13T03:45:43;46.70;;;24.40;;
68744;SDS011;73143;45.456;11.064;2023-10-13T03:48:20;43.10;;;24.60;;
68744;SDS011;73143;45.456;11.064;2023-10-13T03:51:02;43.10;;;24.70;;
68744;SDS011;73143;45.456;11.064;2023-10-13T03:53:42;45.80;;;24.10;;
68744;SDS011;73143;45.456;11.064;2023-10-13T03:56:27;43.90;;;24.70;;
68744;SDS011;73143;45.456;11.064;2023-10-13T03:59:12;40.70;;;24.50;;
68744;SDS011;73143;45.456;11.064;2023-10-13T04:01:52;43.20;;;25.50;;
68744;SDS011;73143;45.456;11.064;2023-10-13T04:04:34;44.00;;;24.50;;
68744;SDS011;73143;45.456;11.064;2023-10-13T04:07:15;46.90;;;25.20;;
68744;SDS011;73143;45.456;11.064;2023-10-13T04:10:12;42.70;;;24.90;;
68744;SDS011;73143;45.456;11.064;2023-10-13T04:13:09;45.70;;;25.00;;
68744;SDS011;73143;45.456;11.064;2023-10-13T04:16:14;42.80;;;24.40;;
68744;SDS011;73143;45.456;11.064;2023-10-13T04:19:05;46.50;;;24.30;;
68744;SDS011;73143;45.456;11.064;2023-10-13T04:21:53;43.10;;;24.40;;
68744;SDS011;73143;45.456;11.064;2023-10-13T04:24:32;43.20;;;24.70;;
68744;SDS011;73143;45.456;11.064;2023-10-13T04:27:25;44.20;;;24.80;;
68744;SDS011;73143;45.456;11.064;2023-10-13T04:30:18;41.10;;;24.00;;
68744;SDS011;73143;45.456;11.064;2023-10-13T04:33:05;41.60;;;24.80;;
68744;SDS011;73143;45.456;11.064;2023-10-13T04:36:10;48.30;;;25.10;;
68744;SDS011;73143;45.456;11.064;2023-10-13T04:38:49;40.60;;;23.80;;
68744;SDS011;73143;45.456;11.064;2023-10-13T04:41:33;43.90;;;25.30;;
68744;SDS011;73143;45.456;11.064;2023-10-13T04:44:17;41.60;;;26.00;;
68744;SDS011;73143;45.456;11.064;2023-10-13T04:47:07;45.20;;;26.00;;
68744;SDS011;73143;45.456;11.064;2023-10-13T04:49:54;45.60;;;25.10;;
68744;SDS011;73143;45.456;11.064;2023-10-13T04:52:33;43.50;;;24.60;;
68744;SDS011;73143;45.456;11.064;2023-10-13T04:55:35;45.70;;;25.10;;
68744;SDS011;73143;45.456;11.064;2023-10-13T04:58:30;49.00;;;25.10;;
68744;SDS011;73143;45.456;11.064;2023-10-13T05:01:40;43.60;;;24.70;;
68744;SDS011;73143;45.456;11.064;2023-10-13T05:04:34;45.10;;;25.10;;
68744;SDS011;73143;45.456;11.064;2023-10-13T05:07:32;40.10;;;24.60;;
68744;SDS011;73143;45.456;11.064;2023-10-13T05:10:25;47.70;;;25.40;;
68744;SDS011;73143;45.456;11.064;2023-10-13T05:13:31;41.60;;;24.60;;
68744;SDS011;73143;45.456;11.064;2023-10-13T05:16:25;46.10;;;27.10;;
68744;SDS011;73143;45.456;11.064;2023-10-13T05:19:19;43.60;;;26.00;;
68744;SDS011;73143;45.456;11.064;2023-10-13T05:22:14;46.40;;;25.50;;
68744;SDS011;73143;45.456;11.064;2023-10-13T05:25:09;46.70;;;25.20;;
68744;SDS011;73143;45.456;11.064;2023-10-13T09:03:27;60.40;;;32.00;;
68744;SDS011;73143;45.456;11.064;2023-10-13T09:06:14;56.30;;;32.00;;
68744;SDS011;73143;45.456;11.064;2023-10-13T09:08:51;58.90;;;34.10;;
68744;SDS011;73143;45.456;11.064;2023-10-13T09:11:39;61.00;;;33.80;;
68744;SDS011;73143;45.456;11.064;2023-10-13T09:14:37;61.10;;;34.20;;
68744;SDS011;73143;45.456;11.064;2023-10-13T09:17:16;65.60;;;36.20;;
68744;SDS011;73143;45.456;11.064;2023-10-13T09:20:08;62.10;;;35.40;;
68744;SDS011;73143;45.456;11.064;2023-10-13T09:23:10;60.50;;;34.90;;
68744;SDS011;73143;45.456;11.064;2023-10-13T09:25:55;69.50;;;36.10;;
68744;SDS011;73143;45.456;11.064;2023-10-13T09:28:44;69.80;;;38.60;;
68744;SDS011;73143;45.456;11.064;2023-10-13T09:31:26;70.10;;;40.60;;
68744;SDS011;73143;45.456;11.064;2023-10-13T09:34:04;75.00;;;41.00;;
68744;SDS011;73143;45.456;11.064;2023-10-13T09:36:41;67.90;;;39.70;;
68744;SDS011;73143;45.456;11.064;2023-10-13T09:39:19;79.40;;;43.20;;
68744;SDS011;73143;45.456;11.064;2023-10-13T09:42:09;72.20;;;41.80;;
68744;SDS011;73143;45.456;11.064;2023-10-13T09:44:50;73.60;;;39.60;;
68744;SDS011;73143;45.456;11.064;2023-10-13T09:47:31;68.40;;;37.90;;
68744;SDS011;73143;45.456;11.064;2023-10-13T09:50:15;70.50;;;41.00;;
68744;SDS011;73143;45.456;11.064;2023-10-13T09:52:57;72.20;;;41.60;;
68744;SDS011;73143;45.456;11.064;2023-10-13T09:55:38;74.80;;;43.00;;
68744;SDS011;73143;45.456;11.064;2023-10-13T09:58:18;75.40;;;41.60;;
68744;SDS011;73143;45.456;11.064;2023-10-13T10:01:01;74.90;;;41.60;;
68744;SDS011;73143;45.456;11.064;2023-10-13T10:03:48;83.70;;;42.50;;
68744;SDS011;73143;45.456;11.064;2023-10-13T10:06:40;73.80;;;42.30;;
68744;SDS011;73143;45.456;11.064;2023-10-13T10:09:31;79.90;;;41.80;;
68744;SDS011;73143;45.456;11.064;2023-10-13T10:12:31;77.80;;;43.00;;
68744;SDS011;73143;45.456;11.064;2023-10-13T10:15:28;77.90;;;42.60;;
68744;SDS011;73143;45.456;11.064;2023-10-13T10:18:22;71.50;;;40.40;;
68744;SDS011;73143;45.456;11.064;2023-10-13T10:21:06;72.90;;;42.00;;
68744;SDS011;73143;45.456;11.064;2023-10-13T10:23:54;71.90;;;41.40;;
68744;SDS011;73143;45.456;11.064;2023-10-13T10:26:34;72.00;;;39.60;;
68744;SDS011;73143;45.456;11.064;2023-10-13T10:29:14;73.90;;;40.50;;
68744;SDS011;73143;45.456;11.064;2023-10-13T10:31:51;70.30;;;39.90;;
68744;SDS011;73143;45.456;11.064;2023-10-13T10:34:32;72.30;;;40.50;;
68744;SDS011;73143;45.456;11.064;2023-10-13T10:37:08;70.50;;;39.50;;
68744;SDS011;73143;45.456;11.064;2023-10-13T10:39:45;71.90;;;41.00;;
68744;SDS011;73143;45.456;11.064;2023-10-13T10:42:28;73.50;;;41.50;;
68744;SDS011;73143;45.456;11.064;2023-10-13T10:45:10;70.70;;;40.40;;
68744;SDS011;73143;45.456;11.064;2023-10-13T10:47:53;72.20;;;41.30;;
68744;SDS011;73143;45.456;11.064;2023-10-13T10:50:30;69.30;;;41.70;;
68744;SDS011;73143;45.456;11.064;2023-10-13T10:53:10;78.20;;;40.40;;
68744;SDS011;73143;45.456;11.064;2023-10-13T10:55:47;76.20;;;43.10;;
68744;SDS011;73143;45.456;11.064;2023-10-13T10:58:23;71.00;;;38.70;;
68744;SDS011;73143;45.456;11.064;2023-10-13T11:01:16;66.80;;;34.30;;
68744;SDS011;73143;45.456;11.064;2023-10-13T11:03:58;58.90;;;33.20;;
68744;SDS011;73143;45.456;11.064;2023-10-13T11:06:50;47.70;;;28.30;;
68744;SDS011;73143;45.456;11.064;2023-10-13T11:09:29;46.20;;;26.00;;
68744;SDS011;73143;45.456;11.064;2023-10-13T11:12:16;42.90;;;24.00;;
68744;SDS011;73143;45.456;11.064;2023-10-13T11:15:06;37.10;;;22.30;;
68744;SDS011;73143;45.456;11.064;2023-10-13T11:17:54;36.90;;;20.50;;
68744;SDS011;73143;45.456;11.064;2023-10-13T11:20:30;37.20;;;20.80;;
68744;SDS011;73143;45.456;11.064;2023-10-13T11:23:15;39.90;;;22.70;;
68744;SDS011;73143;45.456;11.064;2023-10-13T11:26:03;41.00;;;22.90;;
68744;SDS011;73143;45.456;11.064;2023-10-13T11:28:40;42.80;;;23.80;;
68744;SDS011;73143;45.456;11.064;2023-10-13T11:31:27;39.80;;;24.20;;
68744;SDS011;73143;45.456;11.064;2023-10-13T11:34:05;41.00;;;25.20;;
68744;SDS011;73143;45.456;11.064;2023-10-13T11:36:48;44.80;;;25.30;;
68744;SDS011;73143;45.456;11.064;2023-10-13T11:39:25;43.30;;;23.90;;
68744;SDS011;73143;45.456;11.064;2023-10-13T11:42:13;45.80;;;25.50;;
68744;SDS011;73143;45.456;11.064;2023-10-13T11:44:50;45.70;;;25.90;;
68744;SDS011;73143;45.456;11.064;2023-10-13T11:47:47;42.60;;;26.20;;
68744;SDS011;73143;45.456;11.064;2023-10-13T11:50:30;41.50;;;24.00;;
68744;SDS011;73143;45.456;11.064;2023-10-13T11:53:07;44.20;;;24.60;;
68744;SDS011;73143;45.456;11.064;2023-10-13T11:55:45;45.90;;;25.20;;
68744;SDS011;73143;45.456;11.064;2023-10-13T11:58:21;32.90;;;22.00;;
68744;SDS011;73143;45.456;11.064;2023-10-13T12:00:57;37.20;;;22.60;;
68744;SDS011;73143;45.456;11.064;2023-10-13T12:03:52;36.80;;;20.40;;
68744;SDS011;73143;45.456;11.064;2023-10-13T12:06:49;36.30;;;21.60;;
68744;SDS011;73143;45.456;11.064;2023-10-13T12:09:35;33.80;;;19.60;;
68744;SDS011;73143;45.456;11.064;2023-10-13T12:12:34;34.20;;;18.20;;
68744;SDS011;73143;45.456;11.064;2023-10-13T12:15:15;33.70;;;19.00;;
68744;SDS011;73143;45.456;11.064;2023-10-13T12:18:08;32.00;;;17.40;;
68744;SDS011;73143;45.456;11.064;2023-10-13T12:20:46;33.30;;;18.40;;
68744;SDS011;73143;45.456;11.064;2023-10-13T12:23:23;37.70;;;17.70;;
68744;SDS011;73143;45.456;11.064;2023-10-13T12:26:04;32.30;;;18.90;;
68744;SDS011;73143;45.456;11.064;2023-10-13T12:28:50;31.00;;;17.40;;
68744;SDS011;73143;45.456;11.064;2023-10-13T12:31:37;28.30;;;16.90;;
68744;SDS011;73143;45.456;11.064;2023-10-13T12:34:22;29.30;;;18.00;;
68744;SDS011;73143;45.456;11.064;2023-10-13T12:37:18;30.60;;;16.80;;
68744;SDS011;73143;45.456;11.064;2023-10-13T12:40:13;25.70;;;15.60;;
68744;SDS011;73143;45.456;11.064;2023-10-13T12:43:07;23.40;;;13.50;;
68744;SDS011;73143;45.456;11.064;2023-10-13T12:46:00;24.10;;;13.90;;
68744;SDS011;73143;45.456;11.064;2023-10-13T12:49:09;25.00;;;12.30;;
68744;SDS011;73143;45.456;11.064;2023-10-13T12:52:09;31.10;;;13.80;;
68744;SDS011;73143;45.456;11.064;2023-10-13T12:54:51;26.80;;;15.40;;
68744;SDS011;73143;45.456;11.064;2023-10-13T12:57:42;26.30;;;14.70;;
68744;SDS011;73143;45.456;11.064;2023-10-13T13:00:21;27.60;;;13.80;;
68744;SDS011;73143;45.456;11.064;2023-10-13T13:03:05;21.80;;;12.70;;
68744;SDS011;73143;45.456;11.064;2023-10-13T13:05:45;23.80;;;12.90;;
68744;SDS011;73143;45.456;11.064;2023-10-13T13:08:27;24.80;;;13.10;;
68744;SDS011;73143;45.456;11.064;2023-10-13T13:11:07;29.20;;;15.70;;
68744;SDS011;73143;45.456;11.064;2023-10-13T13:13:44;27.90;;;15.60;;
68744;SDS011;73143;45.456;11.064;2023-10-13T13:16:21;32.70;;;16.30;;
68744;SDS011;73143;45.456;11.064;2023-10-13T13:19:02;27.10;;;14.40;;
68744;SDS011;73143;45.456;11.064;2023-10-13T13:21:46;28.80;;;14.20;;
68744;SDS011;73143;45.456;11.064;2023-10-13T13:24:22;17.60;;;11.30;;
68744;SDS011;73143;45.456;11.064;2023-10-13T13:27:01;20.60;;;10.90;;
68744;SDS011;73143;45.456;11.064;2023-10-13T13:29:39;19.70;;;11.30;;
68744;SDS011;73143;45.456;11.064;2023-10-13T13:32:15;26.20;;;10.90;;
68744;SDS011;73143;45.456;11.064;2023-10-13T13:34:56;22.30;;;12.20;;
68744;SDS011;73143;45.456;11.064;2023-10-13T13:37:36;22.70;;;11.90;;
68744;SDS011;73143;45.456;11.064;2023-10-13T13:40:17;23.00;;;12.70;;
68744;SDS011;73143;45.456;11.064;2023-10-13T13:42:55;28.90;;;14.30;;
68744;SDS011;73143;45.456;11.064;2023-10-13T13:45:32;26.50;;;14.60;;
68744;SDS011;73143;45.456;11.064;2023-10-13T13:48:13;29.40;;;15.30;;
68744;SDS011;73143;45.456;11.064;2023-10-13T13:50:49;27.50;;;14.00;;
68744;SDS011;73143;45.456;11.064;2023-10-13T13:53:28;22.90;;;13.30;;
68744;SDS011;73143;45.456;11.064;2023-10-13T13:56:06;26.00;;;14.10;;
68744;SDS011;73143;45.456;11.064;2023-10-13T13:58:43;23.70;;;13.40;;
68744;SDS011;73143;45.456;11.064;2023-10-13T14:01:21;26.40;;;13.20;;
68744;SDS011;73143;45.456;11.064;2023-10-13T14:04:00;23.20;;;13.10;;
68744;SDS011;73143;45.456;11.064;2023-10-13T14:06:39;23.20;;;10.90;;
68744;SDS011;73143;45.456;11.064;2023-10-13T14:09:17;20.80;;;12.20;;
68744;SDS011;73143;45.456;11.064;2023-10-13T14:12:05;20.50;;;11.20;;
68744;SDS011;73143;45.456;11.064;2023-10-13T14:15:14;19.00;;;12.10;;
68744;SDS011;73143;45.456;11.064;2023-10-13T14:17:55;23.60;;;12.50;;
68744;SDS011;73143;45.456;11.064;2023-10-13T14:20:38;25.80;;;13.70;;
68744;SDS011;73143;45.456;11.064;2023-10-13T14:23:15;28.20;;;14.20;;
68744;SDS011;73143;45.456;11.064;2023-10-13T14:25:53;23.70;;;14.50;;
68744;SDS011;73143;45.456;11.064;2023-10-13T14:28:30;27.30;;;15.00;;
68744;SDS011;73143;45.456;11.064;2023-10-13T14:31:08;28.80;;;17.00;;
68744;SDS011;73143;45.456;11.064;2023-10-13T14:33:47;24.10;;;15.30;;
68744;SDS011;73143;45.456;11.064;2023-10-13T14:36:25;30.90;;;14.90;;
68744;SDS011;73143;45.456;11.064;2023-10-13T14:39:07;24.40;;;15.90;;
68744;SDS011;73143;45.456;11.064;2023-10-13T14:41:44;24.20;;;14.20;;
68744;SDS011;73143;45.456;11.064;2023-10-13T14:44:21;24.50;;;15.90;;
68744;SDS011;73143;45.456;11.064;2023-10-13T14:46:58;24.90;;;15.70;;
68744;SDS011;73143;45.456;11.064;2023-10-13T14:49:37;25.40;;;16.70;;
68744;SDS011;73143;45.456;11.064;2023-10-13T14:52:14;26.00;;;16.30;;
68744;SDS011;73143;45.456;11.064;2023-10-13T14:54:51;29.40;;;16.70;;
68744;SDS011;73143;45.456;11.064;2023-10-13T14:57:29;23.80;;;15.70;;
68744;SDS011;73143;45.456;11.064;2023-10-13T15:00:15;27.30;;;15.00;;
68744;SDS011;73143;45.456;11.064;2023-10-13T15:03:01;26.90;;;15.30;;
68744;SDS011;73143;45.456;11.064;2023-10-13T15:05:42;24.30;;;15.40;;
68744;SDS011;73143;45.456;11.064;2023-10-13T15:08:19;26.30;;;15.10;;
68744;SDS011;73143;45.456;11.064;2023-10-13T15:10:55;22.60;;;14.70;;
68744;SDS011;73143;45.456;11.064;2023-10-13T15:13:44;21.50;;;14.20;;
68744;SDS011;73143;45.456;11.064;2023-10-13T15:16:22;23.50;;;15.00;;
68744;SDS011;73143;45.456;11.064;2023-10-13T15:18:59;25.10;;;14.10;;
68744;SDS011;73143;45.456;11.064;2023-10-13T15:21:38;24.20;;;14.80;;
68744;SDS011;73143;45.456;11.064;2023-10-13T15:24:20;26.90;;;15.10;;
68744;SDS011;73143;45.456;11.064;2023-10-13T15:27:03;26.10;;;15.00;;
68744;SDS011;73143;45.456;11.064;2023-10-13T15:29:41;27.30;;;14.10;;
68744;SDS011;73143;45.456;11.064;2023-10-13T15:32:22;21.60;;;13.20;;
68744;SDS011;73143;45.456;11.064;2023-10-13T15:35:17;29.10;;;14.90;;
68744;SDS011;73143;45.456;11.064;2023-10-13T15:37:59;27.70;;;14.80;;
68744;SDS011;73143;45.456;11.064;2023-10-13T15:40:42;27.40;;;15.00;;
68744;SDS011;73143;45.456;11.064;2023-10-13T15:43:20;27.80;;;14.90;;
68744;SDS011;73143;45.456;11.064;2023-10-13T15:45:56;22.70;;;14.50;;
68744;SDS011;73143;45.456;11.064;2023-10-13T15:49:02;26.80;;;14.80;;
68744;SDS011;73143;45.456;11.064;2023-10-13T15:51:45;31.00;;;13.90;;
68744;SDS011;73143;45.456;11.064;2023-10-13T15:54:22;26.40;;;14.00;;
68744;SDS011;73143;45.456;11.064;2023-10-13T15:56:58;25.90;;;13.30;;
68744;SDS011;73143;45.456;11.064;2023-10-13T15:59:38;26.70;;;12.70;;
68744;SDS011;73143;45.456;11.064;2023-10-13T16:02:17;24.20;;;12.50;;
68744;SDS011;73143;45.456;11.064;2023-10-13T16:04:56;24.80;;;12.70;;
68744;SDS011;73143;45.456;11.064;2023-10-13T16:07:38;24.70;;;12.30;;
68744;SDS011;73143;45.456;11.064;2023-10-13T16:10:16;29.90;;;11.80;;
68744;SDS011;73143;45.456;11.064;2023-10-13T16:12:54;23.20;;;11.80;;
68744;SDS011;73143;45.456;11.064;2023-10-13T16:15:32;19.80;;;11.60;;
68744;SDS011;73143;45.456;11.064;2023-10-13T16:18:14;17.20;;;11.60;;
68744;SDS011;73143;45.456;11.064;2023-10-13T16:20:54;25.20;;;12.30;;
68744;SDS011;73143;45.456;11.064;2023-10-13T16:23:31;21.60;;;11.50;;
68744;SDS011;73143;45.456;11.064;2023-10-13T16:26:10;24.30;;;11.40;;
68744;SDS011;73143;45.456;11.064;2023-10-13T16:28:47;19.90;;;11.80;;
68744;SDS011;73143;45.456;11.064;2023-10-13T16:31:25;29.20;;;11.70;;
68744;SDS011;73143;45.456;11.064;2023-10-13T16:34:03;27.90;;;13.10;;
68744;SDS011;73143;45.456;11.064;2023-10-13T16:36:39;31.70;;;12.10;;
68744;SDS011;73143;45.456;11.064;2023-10-13T16:39:17;38.00;;;12.50;;
68744;SDS011;73143;45.456;11.064;2023-10-13T16:41:56;35.00;;;12.20;;
68744;SDS011;73143;45.456;11.064;2023-10-13T16:44:39;30.50;;;12.20;;
68744;SDS011;73143;45.456;11.064;2023-10-13T16:47:16;30.90;;;11.50;;
68744;SDS011;73143;45.456;11.064;2023-10-13T16:49:53;30.10;;;12.40;;
68744;SDS011;73143;45.456;11.064;2023-10-13T16:52:29;25.30;;;12.80;;
68744;SDS011;73143;45.456;11.064;2023-10-13T16:55:09;29.90;;;12.90;;
68744;SDS011;73143;45.456;11.064;2023-10-13T16:57:50;22.10;;;12.80;;
68744;SDS011;73143;45.456;11.064;2023-10-13T17:00:27;27.60;;;12.30;;
68744;SDS011;73143;45.456;11.064;2023-10-13T17:03:05;24.50;;;12.50;;
68744;SDS011;73143;45.456;11.064;2023-10-13T17:05:45;23.40;;;12.70;;
68744;SDS011;73143;45.456;11.064;2023-10-13T17:08:22;23.00;;;12.60;;
68744;SDS011;73143;45.456;11.064;2023-10-13T17:11:09;23.60;;;13.20;;
68744;SDS011;73143;45.456;11.064;2023-10-13T17:13:46;25.20;;;13.60;;
68744;SDS011;73143;45.456;11.064;2023-10-13T17:16:24;21.10;;;12.40;;
68744;SDS011;73143;45.456;11.064;2023-10-13T17:19:03;25.00;;;12.90;;
68744;SDS011;73143;45.456;11.064;2023-10-13T17:21:40;22.70;;;13.20;;
68744;SDS011;73143;45.456;11.064;2023-10-13T17:24:20;29.40;;;13.40;;
68744;SDS011;73143;45.456;11.064;2023-10-13T17:27:01;26.10;;;13.10;;
68744;SDS011;73143;45.456;11.064;2023-10-13T17:29:40;21.90;;;13.70;;
68744;SDS011;73143;45.456;11.064;2023-10-13T17:32:16;23.50;;;14.40;;
68744;SDS011;73143;45.456;11.064;2023-10-13T17:34:54;26.20;;;14.40;;
68744;SDS011;73143;45.456;11.064;2023-10-13T17:37:32;24.10;;;14.30;;
68744;SDS011;73143;45.456;11.064;2023-10-13T17:40:14;25.50;;;14.60;;
68744;SDS011;73143;45.456;11.064;2023-10-13T17:42:52;22.70;;;14.20;;
68744;SDS011;73143;45.456;11.064;2023-10-13T17:45:28;27.70;;;15.10;;
68744;SDS011;73143;45.456;11.064;2023-10-13T17:48:08;24.20;;;15.20;;
68744;SDS011;73143;45.456;11.064;2023-10-13T17:50:46;28.90;;;16.80;;
68744;SDS011;73143;45.456;11.064;2023-10-13T17:53:22;26.00;;;15.20;;
68744;SDS011;73143;45.456;11.064;2023-10-13T17:56:08;30.40;;;15.70;;
68744;SDS011;73143;45.456;11.064;2023-10-13T17:58:47;24.10;;;15.10;;
68744;SDS011;73143;45.456;11.064;2023-10-13T18:01:25;28.50;;;16.10;;
68744;SDS011;73143;45.456;11.064;2023-10-13T18:04:03;29.70;;;15.80;;
68744;SDS011;73143;45.456;11.064;2023-10-13T18:06:45;29.00;;;15.90;;
68744;SDS011;73143;45.456;11.064;2023-10-13T18:09:24;24.10;;;15.30;;
68744;SDS011;73143;45.456;11.064;2023-10-13T18:12:00;27.20;;;15.20;;
68744;SDS011;73143;45.456;11.064;2023-10-13T18:14:39;24.10;;;16.30;;
68744;SDS011;73143;45.456;11.064;2023-10-13T18:17:17;29.60;;;15.40;;
68744;SDS011;73143;45.456;11.064;2023-10-13T18:19:53;29.30;;;16.70;;
68744;SDS011;73143;45.456;11.064;2023-10-13T18:22:29;29.10;;;15.90;;
68744;SDS011;73143;45.456;11.064;2023-10-13T18:25:07;24.80;;;16.40;;
68744;SDS011;73143;45.456;11.064;2023-10-13T18:27:49;29.00;;;17.00;;
68744;SDS011;73143;45.456;11.064;2023-10-13T18:30:26;29.80;;;16.30;;
68744;SDS011;73143;45.456;11.064;2023-10-13T18:33:06;29.90;;;16.00;;
68744;SDS011;73143;45.456;11.064;2023-10-13T18:35:42;28.00;;;17.20;;
68744;SDS011;73143;45.456;11.064;2023-10-13T18:38:21;26.80;;;16.10;;
68744;SDS011;73143;45.456;11.064;2023-10-13T18:41:01;30.30;;;16.30;;
68744;SDS011;73143;45.456;11.064;2023-10-13T18:43:38;30.80;;;16.10;;
68744;SDS011;73143;45.456;11.064;2023-10-13T18:46:15;25.30;;;15.40;;
68744;SDS011;73143;45.456;11.064;2023-10-13T18:48:52;25.20;;;17.10;;
68744;SDS011;73143;45.456;11.064;2023-10-13T18:51:30;26.80;;;17.30;;
68744;SDS011;73143;45.456;11.064;2023-10-13T18:54:08;25.60;;;16.10;;
68744;SDS011;73143;45.456;11.064;2023-10-13T18:56:44;24.90;;;17.10;;
68744;SDS011;73143;45.456;11.064;2023-10-13T18:59:22;26.30;;;16.00;;
68744;SDS011;73143;45.456;11.064;2023-10-13T19:01:58;29.00;;;17.20;;
68744;SDS011;73143;45.456;11.064;2023-10-13T19:04:34;27.50;;;16.20;;
68744;SDS011;73143;45.456;11.064;2023-10-13T19:07:11;29.20;;;16.20;;
68744;SDS011;73143;45.456;11.064;2023-10-13T19:09:47;25.00;;;16.00;;
68744;SDS011;73143;45.456;11.064;2023-10-13T19:12:23;28.10;;;16.80;;